sensor_id;sensor_type;location;lat;lon;timestamp;pressure;altitude;pressure_sealevel;temperature;humidity
72157;BME280;60035;52.122;5.406;2024-03-29T00:00:45;99186.31;;;8.28;98.39
72157;BME280;60035;52.122;5.406;2024-03-29T00:03:20;99189.91;;;8.24;98.72
72157;BME280;60035;52.122;5.406;2024-03-29T00:06:00;99186.63;;;8.22;99.10
72157;BME280;60035;52.122;5.406;2024-03-29T00:08:31;99183.31;;;8.20;99.29
72157;BME280;60035;52.122;5.406;2024-03-29T00:11:07;99176.69;;;8.15;99.55
72157;BME280;60035;52.122;5.406;2024-03-29T00:13:38;99171.75;;;8.12;99.52
72157;BME280;60035;52.122;5.406;2024-03-29T00:16:14;99174.41;;;8.09;99.84
72157;BME280;60035;52.122;5.406;2024-03-29T00:18:46;99174.50;;;8.08;100.00
72157;BME280;60035;52.122;5.406;2024-03-29T00:21:20;99183.88;;;8.07;100.00
72157;BME280;60035;52.122;5.406;2024-03-29T00:23:50;99179.81;;;8.03;100.00
72157;BME280;60035;52.122;5.406;2024-03-29T00:26:20;99183.25;;;8.02;100.00
72157;BME280;60035;52.122;5.406;2024-03-29T00:28:54;99187.47;;;8.03;100.00
72157;BME280;60035;52.122;5.406;2024-03-29T00:31:33;99184.16;;;8.01;100.00
72157;BME280;60035;52.122;5.406;2024-03-29T00:34:07;99192.69;;;8.00;100.00
72157;BME280;60035;52.122;5.406;2024-03-29T00:36:45;99197.84;;;7.98;100.00
72157;BME280;60035;52.122;5.406;2024-03-29T00:39:18;99195.31;;;7.98;100.00
72157;BME280;60035;52.122;5.406;2024-03-29T00:41:49;99213.16;;;7.98;100.00
72157;BME280;60035;52.122;5.406;2024-03-29T00:44:21;99207.16;;;7.99;100.00
72157;BME280;60035;52.122;5.406;2024-03-29T00:46:49;99214.88;;;7.98;100.00
72157;BME280;60035;52.122;5.406;2024-03-29T00:49:20;99215.84;;;7.95;100.00
72157;BME280;60035;52.122;5.406;2024-03-29T00:51:49;99214.19;;;7.94;100.00
72157;BME280;60035;52.122;5.406;2024-03-29T00:54:26;99214.97;;;7.96;100.00
72157;BME280;60035;52.122;5.406;2024-03-29T00:56:55;99220.06;;;7.96;100.00
72157;BME280;60035;52.122;5.406;2024-03-29T00:59:28;99221.75;;;7.96;100.00
72157;BME280;60035;52.122;5.406;2024-03-29T01:01:57;99227.56;;;7.99;100.00
72157;BME280;60035;52.122;5.406;2024-03-29T01:04:27;99217.28;;;8.01;100.00
72157;BME280;60035;52.122;5.406;2024-03-29T01:07:01;99224.13;;;8.00;100.00
72157;BME280;60035;52.122;5.406;2024-03-29T01:09:29;99224.16;;;7.99;100.00
72157;BME280;60035;52.122;5.406;2024-03-29T01:12:00;99219.97;;;7.98;100.00
72157;BME280;60035;52.122;5.406;2024-03-29T01:14:31;99221.75;;;7.96;100.00
72157;BME280;60035;52.122;5.406;2024-03-29T01:17:08;99223.50;;;7.95;100.00
72157;BME280;60035;52.122;5.406;2024-03-29T01:19:36;99210.75;;;7.95;100.00
72157;BME280;60035;52.122;5.406;2024-03-29T01:22:11;99209.09;;;7.94;100.00
72157;BME280;60035;52.122;5.406;2024-03-29T01:24:44;99208.28;;;7.94;100.00
72157;BME280;60035;52.122;5.406;2024-03-29T01:27:13;99204.00;;;7.94;100.00
72157;BME280;60035;52.122;5.406;2024-03-29T01:29:44;99203.19;;;7.94;100.00
72157;BME280;60035;52.122;5.406;2024-03-29T01:32:15;99195.66;;;7.91;100.00
72157;BME280;60035;52.122;5.406;2024-03-29T01:34:48;99194.91;;;7.89;100.00
72157;BME280;60035;52.122;5.406;2024-03-29T01:37:19;99200.97;;;7.86;100.00
72157;BME280;60035;52.122;5.406;2024-03-29T01:39:56;99194.28;;;7.83;100.00
72157;BME280;60035;52.122;5.406;2024-03-29T01:42:24;99187.59;;;7.81;100.00
72157;BME280;60035;52.122;5.406;2024-03-29T01:45:02;99189.31;;;7.80;100.00
72157;BME280;60035;52.122;5.406;2024-03-29T01:47:34;99183.47;;;7.78;100.00
72157;BME280;60035;52.122;5.406;2024-03-29T01:50:09;99182.69;;;7.76;100.00
72157;BME280;60035;52.122;5.406;2024-03-29T01:52:40;99185.25;;;7.76;100.00
72157;BME280;60035;52.122;5.406;2024-03-29T01:55:09;99176.78;;;7.76;100.00
72157;BME280;60035;52.122;5.406;2024-03-29T01:57:37;99176.88;;;7.74;100.00
72157;BME280;60035;52.122;5.406;2024-03-29T02:00:07;99161.56;;;7.74;100.00
72157;BME280;60035;52.122;5.406;2024-03-29T02:02:41;99160.06;;;7.70;100.00
72157;BME280;60035;52.122;5.406;2024-03-29T02:05:13;99168.59;;;7.69;100.00
72157;BME280;60035;52.122;5.406;2024-03-29T02:07:45;99168.75;;;7.66;100.00
72157;BME280;60035;52.122;5.406;2024-03-29T02:10:20;99162.94;;;7.62;100.00
72157;BME280;60035;52.122;5.406;2024-03-29T02:12:54;99166.53;;;7.58;100.00
72157;BME280;60035;52.122;5.406;2024-03-29T02:15:22;99169.19;;;7.55;100.00
72157;BME280;60035;52.122;5.406;2024-03-29T02:17:56;99176.16;;;7.52;100.00
72157;BME280;60035;52.122;5.406;2024-03-29T02:20:27;99179.66;;;7.49;100.00
72157;BME280;60035;52.122;5.406;2024-03-29T02:23:07;99188.28;;;7.46;100.00
72157;BME280;60035;52.122;5.406;2024-03-29T02:25:39;99201.13;;;7.43;100.00
72157;BME280;60035;52.122;5.406;2024-03-29T02:28:12;99201.13;;;7.43;100.00
72157;BME280;60035;52.122;5.406;2024-03-29T02:30:43;99200.38;;;7.41;100.00
72157;BME280;60035;52.122;5.406;2024-03-29T02:33:12;99208.09;;;7.40;100.00
72157;BME280;60035;52.122;5.406;2024-03-29T02:35:42;99215.66;;;7.41;100.00
72157;BME280;60035;52.122;5.406;2024-03-29T02:38:16;99202.84;;;7.43;100.00
72157;BME280;60035;52.122;5.406;2024-03-29T02:40:47;99213.09;;;7.41;100.00
72157;BME280;60035;52.122;5.406;2024-03-29T02:43:19;99218.28;;;7.40;100.00
72157;BME280;60035;52.122;5.406;2024-03-29T02:45:47;99219.22;;;7.37;100.00
72157;BME280;60035;52.122;5.406;2024-03-29T02:48:20;99211.59;;;7.37;100.00
72157;BME280;60035;52.122;5.406;2024-03-29T02:50:49;99214.94;;;7.38;100.00
72157;BME280;60035;52.122;5.406;2024-03-29T02:53:17;99208.97;;;7.39;100.00
72157;BME280;60035;52.122;5.406;2024-03-29T02:55:49;99208.00;;;7.41;100.00
72157;BME280;60035;52.122;5.406;2024-03-29T02:58:26;99216.41;;;7.43;100.00
72157;BME280;60035;52.122;5.406;2024-03-29T03:00:54;99202.84;;;7.43;100.00
72157;BME280;60035;52.122;5.406;2024-03-29T03:03:32;99205.31;;;7.44;100.00
72157;BME280;60035;52.122;5.406;2024-03-29T03:06:03;99214.63;;;7.45;100.00
72157;BME280;60035;52.122;5.406;2024-03-29T03:08:38;99213.66;;;7.48;100.00
72157;BME280;60035;52.122;5.406;2024-03-29T03:11:24;99205.06;;;7.50;100.00
72157;BME280;60035;52.122;5.406;2024-03-29T03:13:55;99209.28;;;7.52;100.00
72157;BME280;60035;52.122;5.406;2024-03-29T03:16:26;99210.88;;;7.54;100.00
72157;BME280;60035;52.122;5.406;2024-03-29T03:19:15;99212.50;;;7.55;100.00
72157;BME280;60035;52.122;5.406;2024-03-29T03:21:50;99218.38;;;7.57;100.00
72157;BME280;60035;52.122;5.406;2024-03-29T03:24:21;99213.97;;;7.61;100.00
72157;BME280;60035;52.122;5.406;2024-03-29T03:26:55;99214.59;;;7.66;100.00
72157;BME280;60035;52.122;5.406;2024-03-29T03:29:28;99228.00;;;7.70;100.00
72157;BME280;60035;52.122;5.406;2024-03-29T03:31:57;99235.53;;;7.73;100.00
72157;BME280;60035;52.122;5.406;2024-03-29T03:34:28;99231.25;;;7.73;100.00
72157;BME280;60035;52.122;5.406;2024-03-29T03:37:03;99220.03;;;7.77;100.00
72157;BME280;60035;52.122;5.406;2024-03-29T03:39:34;99220.72;;;7.81;100.00
72157;BME280;60035;52.122;5.406;2024-03-29T03:42:05;99228.38;;;7.81;100.00
72157;BME280;60035;52.122;5.406;2024-03-29T03:44:41;99227.34;;;7.85;100.00
72157;BME280;60035;52.122;5.406;2024-03-29T03:47:12;99223.91;;;7.86;100.00
72157;BME280;60035;52.122;5.406;2024-03-29T03:49:46;99226.38;;;7.88;100.00
72157;BME280;60035;52.122;5.406;2024-03-29T03:52:17;99237.31;;;7.90;100.00
72157;BME280;60035;52.122;5.406;2024-03-29T03:54:45;99224.31;;;7.96;100.00
72157;BME280;60035;52.122;5.406;2024-03-29T03:57:16;99227.69;;;7.96;100.00
72157;BME280;60035;52.122;5.406;2024-03-29T03:59:50;99226.66;;;8.00;100.00
72157;BME280;60035;52.122;5.406;2024-03-29T04:02:21;99235.91;;;8.03;100.00
72157;BME280;60035;52.122;5.406;2024-03-29T04:04:57;99231.34;;;8.10;100.00
72157;BME280;60035;52.122;5.406;2024-03-29T04:07:28;99234.56;;;8.13;100.00
72157;BME280;60035;52.122;5.406;2024-03-29T04:09:59;99238.56;;;8.19;100.00
72157;BME280;60035;52.122;5.406;2024-03-29T04:12:28;99244.22;;;8.26;100.00
72157;BME280;60035;52.122;5.406;2024-03-29T04:15:03;99244.06;;;8.29;100.00
72157;BME280;60035;52.122;5.406;2024-03-29T04:17:35;99242.28;;;8.31;100.00
72157;BME280;60035;52.122;5.406;2024-03-29T04:20:04;99236.06;;;8.37;100.00
72157;BME280;60035;52.122;5.406;2024-03-29T04:22:35;99239.31;;;8.40;100.00
72157;BME280;60035;52.122;5.406;2024-03-29T04:25:14;99231.50;;;8.43;100.00
72157;BME280;60035;52.122;5.406;2024-03-29T04:27:53;99228.06;;;8.44;100.00
72157;BME280;60035;52.122;5.406;2024-03-29T04:30:27;99223.72;;;8.46;100.00
72157;BME280;60035;52.122;5.406;2024-03-29T04:32:58;99227.06;;;8.48;100.00
72157;BME280;60035;52.122;5.406;2024-03-29T04:35:32;99234.56;;;8.52;100.00
72157;BME280;60035;52.122;5.406;2024-03-29T04:38:01;99231.03;;;8.54;100.00
72157;BME280;60035;52.122;5.406;2024-03-29T04:40:30;99226.78;;;8.55;100.00
72157;BME280;60035;52.122;5.406;2024-03-29T04:42:58;99237.72;;;8.57;100.00
72157;BME280;60035;52.122;5.406;2024-03-29T04:45:26;99245.28;;;8.58;100.00
72157;BME280;60035;52.122;5.406;2024-03-29T04:48:00;99229.00;;;8.61;100.00
72157;BME280;60035;52.122;5.406;2024-03-29T04:50:31;99227.31;;;8.61;100.00
72157;BME280;60035;52.122;5.406;2024-03-29T04:53:01;99223.09;;;8.60;100.00
72157;BME280;60035;52.122;5.406;2024-03-29T04:55:36;99232.53;;;8.58;100.00
72157;BME280;60035;52.122;5.406;2024-03-29T04:58:18;99225.94;;;8.54;100.00
72157;BME280;60035;52.122;5.406;2024-03-29T05:00:46;99232.22;;;8.47;100.00
72157;BME280;60035;52.122;5.406;2024-03-29T05:03:24;99232.56;;;8.39;100.00
72157;BME280;60035;52.122;5.406;2024-03-29T05:05:53;99226.03;;;8.33;100.00
72157;BME280;60035;52.122;5.406;2024-03-29T05:08:27;99229.75;;;8.26;100.00
72157;BME280;60035;52.122;5.406;2024-03-29T05:10:57;99226.66;;;8.20;100.00
72157;BME280;60035;52.122;5.406;2024-03-29T05:13:28;99239.72;;;8.12;100.00
72157;BME280;60035;52.122;5.406;2024-03-29T05:16:01;99244.22;;;8.07;100.00
72157;BME280;60035;52.122;5.406;2024-03-29T05:18:30;99243.53;;;8.03;100.00
72157;BME280;60035;52.122;5.406;2024-03-29T05:20:58;99243.66;;;8.00;100.00
72157;BME280;60035;52.122;5.406;2024-03-29T05:23:30;99243.81;;;7.97;100.00
72157;BME280;60035;52.122;5.406;2024-03-29T05:26:01;99243.13;;;7.93;100.00
72157;BME280;60035;52.122;5.406;2024-03-29T05:28:29;99265.31;;;7.91;100.00
72157;BME280;60035;52.122;5.406;2024-03-29T05:31:14;99267.91;;;7.90;100.00
72157;BME280;60035;52.122;5.406;2024-03-29T05:33:43;99282.44;;;7.88;100.00
72157;BME280;60035;52.122;5.406;2024-03-29T05:36:15;99290.09;;;7.88;100.00
72157;BME280;60035;52.122;5.406;2024-03-29T05:38:43;99294.34;;;7.87;100.00
72157;BME280;60035;52.122;5.406;2024-03-29T05:41:15;99293.53;;;7.87;100.00
72157;BME280;60035;52.122;5.406;2024-03-29T05:43:43;99304.53;;;7.87;100.00
72157;BME280;60035;52.122;5.406;2024-03-29T05:46:22;99296.88;;;7.87;100.00
72157;BME280;60035;52.122;5.406;2024-03-29T05:48:50;99296.00;;;7.88;100.00
72157;BME280;60035;52.122;5.406;2024-03-29T05:51:21;99295.25;;;7.86;100.00
72157;BME280;60035;52.122;5.406;2024-03-29T05:53:52;99312.25;;;7.86;100.00
72157;BME280;60035;52.122;5.406;2024-03-29T05:56:26;99315.72;;;7.84;100.00
72157;BME280;60035;52.122;5.406;2024-03-29T05:58:57;99327.69;;;7.82;100.00
72157;BME280;60035;52.122;5.406;2024-03-29T06:01:36;99323.47;;;7.81;100.00
72157;BME280;60035;52.122;5.406;2024-03-29T06:04:08;99314.22;;;7.79;100.00
72157;BME280;60035;52.122;5.406;2024-03-29T06:06:48;99317.63;;;7.79;100.00
72157;BME280;60035;52.122;5.406;2024-03-29T06:09:19;99325.19;;;7.81;100.00
72157;BME280;60035;52.122;5.406;2024-03-29T06:11:50;99331.97;;;7.82;100.00
72157;BME280;60035;52.122;5.406;2024-03-29T06:14:32;99337.06;;;7.82;100.00
72157;BME280;60035;52.122;5.406;2024-03-29T06:17:19;99343.03;;;7.81;100.00
72157;BME280;60035;52.122;5.406;2024-03-29T06:19:57;99348.88;;;7.83;100.00
72157;BME280;60035;52.122;5.406;2024-03-29T06:22:30;99345.44;;;7.84;100.00
72157;BME280;60035;52.122;5.406;2024-03-29T06:25:02;99347.19;;;7.83;100.00
72157;BME280;60035;52.122;5.406;2024-03-29T06:27:38;99342.00;;;7.85;100.00
72157;BME280;60035;52.122;5.406;2024-03-29T06:30:15;99341.13;;;7.86;100.00
72157;BME280;60035;52.122;5.406;2024-03-29T06:32:52;99335.88;;;7.89;100.00
72157;BME280;60035;52.122;5.406;2024-03-29T06:35:40;99345.06;;;7.93;100.00
72157;BME280;60035;52.122;5.406;2024-03-29T06:38:10;99347.69;;;7.92;100.00
72157;BME280;60035;52.122;5.406;2024-03-29T06:40:43;99350.16;;;7.93;100.00
72157;BME280;60035;52.122;5.406;2024-03-29T06:43:14;99346.66;;;7.96;100.00
72157;BME280;60035;52.122;5.406;2024-03-29T06:45:48;99343.97;;;7.99;100.00
72157;BME280;60035;52.122;5.406;2024-03-29T06:48:22;99334.47;;;8.03;100.00
72157;BME280;60035;52.122;5.406;2024-03-29T06:50:51;99335.16;;;8.06;100.00
72157;BME280;60035;52.122;5.406;2024-03-29T06:53:23;99335.09;;;8.08;100.00
72157;BME280;60035;52.122;5.406;2024-03-29T06:55:51;99325.78;;;8.07;100.00
72157;BME280;60035;52.122;5.406;2024-03-29T06:58:22;99330.06;;;8.06;100.00
72157;BME280;60035;52.122;5.406;2024-03-29T07:00:54;99324.91;;;8.08;100.00
72157;BME280;60035;52.122;5.406;2024-03-29T07:03:22;99319.81;;;8.08;100.00
72157;BME280;60035;52.122;5.406;2024-03-29T07:05:54;99318.75;;;8.12;100.00
72157;BME280;60035;52.122;5.406;2024-03-29T07:08:25;99319.47;;;8.15;100.00
72157;BME280;60035;52.122;5.406;2024-03-29T07:11:02;99329.44;;;8.20;100.00
72157;BME280;60035;52.122;5.406;2024-03-29T07:13:31;99328.44;;;8.24;100.00
72157;BME280;60035;52.122;5.406;2024-03-29T07:16:00;99317.25;;;8.27;100.00
72157;BME280;60035;52.122;5.406;2024-03-29T07:18:29;99335.94;;;8.27;100.00
72157;BME280;60035;52.122;5.406;2024-03-29T07:20:57;99338.56;;;8.26;100.00
72157;BME280;60035;52.122;5.406;2024-03-29T07:23:26;99335.88;;;8.29;100.00
72157;BME280;60035;52.122;5.406;2024-03-29T07:26:04;99341.75;;;8.31;100.00
72157;BME280;60035;52.122;5.406;2024-03-29T07:28:35;99340.00;;;8.31;100.00
72157;BME280;60035;52.122;5.406;2024-03-29T07:31:07;99354.34;;;8.34;100.00
72157;BME280;60035;52.122;5.406;2024-03-29T07:33:36;99352.50;;;8.38;100.00
72157;BME280;60035;52.122;5.406;2024-03-29T07:36:11;99362.78;;;8.36;100.00
72157;BME280;60035;52.122;5.406;2024-03-29T07:38:40;99368.69;;;8.37;100.00
72157;BME280;60035;52.122;5.406;2024-03-29T07:41:16;99365.38;;;8.34;100.00
72157;BME280;60035;52.122;5.406;2024-03-29T07:43:55;99367.88;;;8.36;100.00
72157;BME280;60035;52.122;5.406;2024-03-29T07:46:36;99358.41;;;8.38;100.00
72157;BME280;60035;52.122;5.406;2024-03-29T07:49:08;99360.00;;;8.41;100.00
72157;BME280;60035;52.122;5.406;2024-03-29T07:51:42;99356.56;;;8.42;100.00
72157;BME280;60035;52.122;5.406;2024-03-29T07:54:10;99357.53;;;8.39;100.00
72157;BME280;60035;52.122;5.406;2024-03-29T07:56:38;99360.81;;;8.41;100.00
72157;BME280;60035;52.122;5.406;2024-03-29T07:59:16;99370.22;;;8.41;100.00
72157;BME280;60035;52.122;5.406;2024-03-29T08:01:52;99375.47;;;8.38;100.00
72157;BME280;60035;52.122;5.406;2024-03-29T08:04:27;99359.38;;;8.36;100.00
72157;BME280;60035;52.122;5.406;2024-03-29T08:06:58;99362.78;;;8.36;100.00
72157;BME280;60035;52.122;5.406;2024-03-29T08:09:31;99352.34;;;8.41;100.00
72157;BME280;60035;52.122;5.406;2024-03-29T08:12:05;99344.69;;;8.41;100.00
72157;BME280;60035;52.122;5.406;2024-03-29T08:14:37;99333.34;;;8.48;100.00
72157;BME280;60035;52.122;5.406;2024-03-29T08:17:05;99339.63;;;8.60;100.00
72157;BME280;60035;52.122;5.406;2024-03-29T08:19:40;99352.44;;;8.77;100.00
72157;BME280;60035;52.122;5.406;2024-03-29T08:22:11;99371.75;;;8.83;100.00
72157;BME280;60035;52.122;5.406;2024-03-29T08:24:47;99359.53;;;8.90;100.00
72157;BME280;60035;52.122;5.406;2024-03-29T08:27:20;99360.22;;;8.93;100.00
72157;BME280;60035;52.122;5.406;2024-03-29T08:29:51;99360.00;;;8.98;100.00
72157;BME280;60035;52.122;5.406;2024-03-29T08:32:24;99362.72;;;9.12;100.00
72157;BME280;60035;52.122;5.406;2024-03-29T08:34:52;99342.69;;;9.22;100.00
72157;BME280;60035;52.122;5.406;2024-03-29T08:37:25;99356.44;;;9.37;100.00
72157;BME280;60035;52.122;5.406;2024-03-29T08:39:54;99366.81;;;9.52;100.00
72157;BME280;60035;52.122;5.406;2024-03-29T08:42:23;99371.25;;;9.65;100.00
72157;BME280;60035;52.122;5.406;2024-03-29T08:44:56;99373.72;;;9.67;100.00
72157;BME280;60035;52.122;5.406;2024-03-29T08:47:27;99381.38;;;9.67;100.00
72157;BME280;60035;52.122;5.406;2024-03-29T08:50:00;99382.59;;;9.77;100.00
72157;BME280;60035;52.122;5.406;2024-03-29T08:52:36;99370.41;;;9.82;100.00
72157;BME280;60035;52.122;5.406;2024-03-29T08:55:06;99379.09;;;9.96;100.00
72157;BME280;60035;52.122;5.406;2024-03-29T08:57:38;99384.69;;;10.04;100.00
72157;BME280;60035;52.122;5.406;2024-03-29T09:00:17;99385.66;;;10.02;100.00
72157;BME280;60035;52.122;5.406;2024-03-29T09:02:48;99383.66;;;10.07;100.00
72157;BME280;60035;52.122;5.406;2024-03-29T09:05:16;99379.31;;;10.09;100.00
72157;BME280;60035;52.122;5.406;2024-03-29T09:07:45;99382.38;;;10.15;100.00
72157;BME280;60035;52.122;5.406;2024-03-29T09:10:21;99379.19;;;10.28;100.00
72157;BME280;60035;52.122;5.406;2024-03-29T09:12:52;99385.09;;;10.46;100.00
72157;BME280;60035;52.122;5.406;2024-03-29T09:15:21;99379.41;;;10.57;100.00
72157;BME280;60035;52.122;5.406;2024-03-29T09:17:56;99384.53;;;10.73;100.00
72157;BME280;60035;52.122;5.406;2024-03-29T09:20:31;99381.25;;;10.71;100.00
72157;BME280;60035;52.122;5.406;2024-03-29T09:22:59;99375.28;;;10.70;100.00
72157;BME280;60035;52.122;5.406;2024-03-29T09:25:30;99388.75;;;10.74;100.00
72157;BME280;60035;52.122;5.406;2024-03-29T09:28:02;99382.75;;;10.75;100.00
72157;BME280;60035;52.122;5.406;2024-03-29T09:30:30;99392.31;;;10.71;100.00
72157;BME280;60035;52.122;5.406;2024-03-29T09:33:01;99398.69;;;10.64;100.00
72157;BME280;60035;52.122;5.406;2024-03-29T09:35:37;99404.38;;;10.69;100.00
72157;BME280;60035;52.122;5.406;2024-03-29T09:38:05;99410.31;;;10.86;100.00
72157;BME280;60035;52.122;5.406;2024-03-29T09:40:38;99410.00;;;10.92;100.00
72157;BME280;60035;52.122;5.406;2024-03-29T09:43:10;99407.66;;;11.03;100.00
72157;BME280;60035;52.122;5.406;2024-03-29T09:45:57;99408.00;;;11.13;100.00
72157;BME280;60035;52.122;5.406;2024-03-29T09:48:26;99407.50;;;11.22;100.00
72157;BME280;60035;52.122;5.406;2024-03-29T09:50:59;99411.53;;;11.26;100.00
72157;BME280;60035;52.122;5.406;2024-03-29T09:53:27;99417.38;;;11.28;100.00
72157;BME280;60035;52.122;5.406;2024-03-29T09:56:03;99425.75;;;11.16;100.00
72157;BME280;60035;52.122;5.406;2024-03-29T09:58:36;99420.25;;;11.08;100.00
72157;BME280;60035;52.122;5.406;2024-03-29T10:01:09;99427.53;;;10.99;100.00
72157;BME280;60035;52.122;5.406;2024-03-29T10:03:48;99428.81;;;11.07;100.00
72157;BME280;60035;52.122;5.406;2024-03-29T10:06:23;99423.53;;;11.10;100.00
72157;BME280;60035;52.122;5.406;2024-03-29T10:08:54;99419.47;;;11.22;100.00
72157;BME280;60035;52.122;5.406;2024-03-29T10:11:28;99418.94;;;11.31;100.00
72157;BME280;60035;52.122;5.406;2024-03-29T10:14:01;99413.59;;;11.36;100.00
72157;BME280;60035;52.122;5.406;2024-03-29T10:16:30;99416.03;;;11.53;100.00
72157;BME280;60035;52.122;5.406;2024-03-29T10:19:01;99401.13;;;11.60;100.00
72157;BME280;60035;52.122;5.406;2024-03-29T10:21:34;99412.97;;;11.77;100.00
72157;BME280;60035;52.122;5.406;2024-03-29T10:24:16;99408.13;;;11.87;100.00
72157;BME280;60035;52.122;5.406;2024-03-29T10:26:47;99406.47;;;12.02;100.00
72157;BME280;60035;52.122;5.406;2024-03-29T10:29:19;99415.19;;;12.13;100.00
72157;BME280;60035;52.122;5.406;2024-03-29T10:31:59;99416.34;;;12.37;100.00
72157;BME280;60035;52.122;5.406;2024-03-29T10:34:31;99415.88;;;12.59;100.00
72157;BME280;60035;52.122;5.406;2024-03-29T10:37:03;99409.06;;;12.87;100.00
72157;BME280;60035;52.122;5.406;2024-03-29T10:39:42;99399.47;;;13.03;100.00
72157;BME280;60035;52.122;5.406;2024-03-29T10:42:13;99405.91;;;13.23;100.00
72157;BME280;60035;52.122;5.406;2024-03-29T10:44:43;99414.31;;;13.12;100.00
72157;BME280;60035;52.122;5.406;2024-03-29T10:47:18;99434.72;;;13.01;100.00
72157;BME280;60035;52.122;5.406;2024-03-29T10:49:53;99405.84;;;12.83;100.00
72157;BME280;60035;52.122;5.406;2024-03-29T10:52:27;99405.91;;;12.96;100.00
72157;BME280;60035;52.122;5.406;2024-03-29T10:54:58;99397.19;;;13.26;100.00
72157;BME280;60035;52.122;5.406;2024-03-29T10:57:40;99413.72;;;13.22;99.98
72157;BME280;60035;52.122;5.406;2024-03-29T11:00:14;99424.19;;;13.19;100.00
72157;BME280;60035;52.122;5.406;2024-03-29T11:05:51;99439.81;;;13.15;98.65
72157;BME280;60035;52.122;5.406;2024-03-29T11:08:31;99430.34;;;13.16;98.11
72157;BME280;60035;52.122;5.406;2024-03-29T11:11:06;99439.66;;;13.31;99.18
72157;BME280;60035;52.122;5.406;2024-03-29T11:13:52;99451.34;;;13.37;97.75
72157;BME280;60035;52.122;5.406;2024-03-29T11:16:23;99456.47;;;13.64;97.06
72157;BME280;60035;52.122;5.406;2024-03-29T11:18:53;99452.53;;;13.59;95.88
72157;BME280;60035;52.122;5.406;2024-03-29T11:21:24;99442.03;;;13.62;97.16
72157;BME280;60035;52.122;5.406;2024-03-29T11:23:55;99439.50;;;13.75;97.93
72157;BME280;60035;52.122;5.406;2024-03-29T11:26:24;99428.19;;;13.90;98.01
72157;BME280;60035;52.122;5.406;2024-03-29T11:28:57;99431.38;;;13.94;97.02
72157;BME280;60035;52.122;5.406;2024-03-29T11:31:37;99417.81;;;13.92;95.71
72157;BME280;60035;52.122;5.406;2024-03-29T11:34:08;99409.66;;;13.85;93.99
72157;BME280;60035;52.122;5.406;2024-03-29T11:36:47;99420.38;;;13.79;92.33
72157;BME280;60035;52.122;5.406;2024-03-29T11:39:26;99430.16;;;13.87;92.22
72157;BME280;60035;52.122;5.406;2024-03-29T11:42:03;99422.66;;;13.96;92.08
72157;BME280;60035;52.122;5.406;2024-03-29T11:44:39;99424.69;;;13.91;91.67
72157;BME280;60035;52.122;5.406;2024-03-29T11:47:09;99436.00;;;13.89;90.62
72157;BME280;60035;52.122;5.406;2024-03-29T11:49:42;99435.00;;;13.91;88.86
72157;BME280;60035;52.122;5.406;2024-03-29T11:52:10;99433.25;;;13.92;89.19
72157;BME280;60035;52.122;5.406;2024-03-29T11:54:43;99441.47;;;13.97;87.55
72157;BME280;60035;52.122;5.406;2024-03-29T11:57:14;99435.63;;;13.95;86.89
72157;BME280;60035;52.122;5.406;2024-03-29T11:59:45;99435.63;;;13.95;86.72
72157;BME280;60035;52.122;5.406;2024-03-29T12:02:17;99440.13;;;13.91;86.63
72157;BME280;60035;52.122;5.406;2024-03-29T12:04:48;99446.22;;;14.16;88.11
72157;BME280;60035;52.122;5.406;2024-03-29T12:07:16;99452.94;;;14.31;86.84
72157;BME280;60035;52.122;5.406;2024-03-29T12:09:45;99451.16;;;14.32;85.76
72157;BME280;60035;52.122;5.406;2024-03-29T12:12:16;99452.38;;;14.39;85.26
72157;BME280;60035;52.122;5.406;2024-03-29T12:14:48;99457.53;;;14.39;85.22
72157;BME280;60035;52.122;5.406;2024-03-29T12:17:20;99465.06;;;14.42;84.59
72157;BME280;60035;52.122;5.406;2024-03-29T12:19:50;99469.72;;;14.37;83.77
72157;BME280;60035;52.122;5.406;2024-03-29T12:22:22;99471.34;;;14.25;81.88
72157;BME280;60035;52.122;5.406;2024-03-29T12:24:57;99470.94;;;14.19;83.12
72157;BME280;60035;52.122;5.406;2024-03-29T12:27:33;99472.38;;;14.23;83.61
72157;BME280;60035;52.122;5.406;2024-03-29T12:30:09;99463.03;;;14.35;84.05
72157;BME280;60035;52.122;5.406;2024-03-29T12:32:39;99464.84;;;14.45;83.43
72157;BME280;60035;52.122;5.406;2024-03-29T12:35:12;99466.72;;;14.43;82.88
72157;BME280;60035;52.122;5.406;2024-03-29T12:38:07;99463.41;;;14.41;83.31
72157;BME280;60035;52.122;5.406;2024-03-29T12:40:46;99471.22;;;14.78;84.05
72157;BME280;60035;52.122;5.406;2024-03-29T12:43:26;99485.19;;;15.00;82.04
72157;BME280;60035;52.122;5.406;2024-03-29T12:45:58;99475.63;;;15.02;81.70
72157;BME280;60035;52.122;5.406;2024-03-29T12:48:27;99478.41;;;14.99;80.55
72157;BME280;60035;52.122;5.406;2024-03-29T12:50:58;99482.44;;;14.90;80.46
72157;BME280;60035;52.122;5.406;2024-03-29T12:53:28;99469.97;;;14.84;79.33
72157;BME280;60035;52.122;5.406;2024-03-29T12:56:05;99483.81;;;14.83;78.70
72157;BME280;60035;52.122;5.406;2024-03-29T12:58:34;99489.19;;;14.67;77.87
72157;BME280;60035;52.122;5.406;2024-03-29T13:01:06;99476.88;;;14.58;78.47
72157;BME280;60035;52.122;5.406;2024-03-29T13:03:34;99479.28;;;14.61;79.62
72157;BME280;60035;52.122;5.406;2024-03-29T13:06:08;99472.78;;;14.68;80.18
72157;BME280;60035;52.122;5.406;2024-03-29T13:08:40;99483.38;;;14.76;79.20
72157;BME280;60035;52.122;5.406;2024-03-29T13:11:11;99488.66;;;14.75;80.48
72157;BME280;60035;52.122;5.406;2024-03-29T13:13:44;99491.31;;;14.86;79.97
72157;BME280;60035;52.122;5.406;2024-03-29T13:16:12;99485.53;;;14.95;80.09
72157;BME280;60035;52.122;5.406;2024-03-29T13:18:44;99488.16;;;15.07;79.35
72157;BME280;60035;52.122;5.406;2024-03-29T13:21:21;99488.78;;;15.10;78.89
72157;BME280;60035;52.122;5.406;2024-03-29T13:23:49;99481.53;;;15.15;77.86
72157;BME280;60035;52.122;5.406;2024-03-29T13:26:21;99478.47;;;15.10;77.46
72157;BME280;60035;52.122;5.406;2024-03-29T13:28:55;99464.25;;;15.05;76.68
72157;BME280;60035;52.122;5.406;2024-03-29T13:31:25;99471.47;;;15.12;76.01